Time;durP1;ratioP1;P1;durP2;ratioP2;P2;SDS_P1;SDS_P2;PMS_P1;PMS_P2;Temp;Humidity;BMP_temperature;BMP_pressure;BME280_temperature;BME280_humidity;BME280_pressure;Samples;Min_cycle;Max_cycle;Signal;HPM_P1;HPM_P2
2022/03/27 00:00:47;;;;;;;34.05;27.52;;;;;;;6.25;100.00;100255.44;2082696;28;20191;-72
2022/03/27 00:01:49;;;;;;;32.75;26.58;;;;;;;6.27;100.00;100263.97;2082666;28;20654;-72
2022/03/27 00:02:51;;;;;;;32.60;26.58;;;;;;;6.37;100.00;100263.34;2081887;28;20200;-72
2022/03/27 00:03:54;;;;;;;28.38;25.40;;;;;;;6.55;100.00;100264.97;2082205;28;20632;-72
2022/03/27 00:04:55;;;;;;;29.02;25.40;;;;;;;6.59;100.00;100274.84;2082286;28;20250;-72
2022/03/27 00:05:58;;;;;;;28.77;25.38;;;;;;;6.56;100.00;100264.75;2082144;28;20219;-72
2022/03/27 00:07:00;;;;;;;31.85;26.38;;;;;;;6.43;100.00;100265.06;2082777;28;20210;-72
2022/03/27 00:08:03;;;;;;;31.52;26.45;;;;;;;6.35;100.00;100262.78;2081932;28;20246;-72
2022/03/27 00:09:04;;;;;;;34.17;26.85;;;;;;;6.32;100.00;100265.91;2082098;28;20199;-72
2022/03/27 00:10:08;;;;;;;29.35;24.88;;;;;;;6.35;100.00;100273.41;2082327;28;20291;-72
2022/03/27 00:11:24;;;;;;;28.45;25.35;;;;;;;6.38;100.00;100276.38;2074354;28;20200;-72
2022/03/27 00:12:27;;;;;;;26.40;22.88;;;;;;;6.28;100.00;100281.50;2076005;28;20286;-72
2022/03/27 00:13:29;;;;;;;27.50;23.15;;;;;;;6.40;100.00;100294.69;2081845;28;20204;-72
2022/03/27 00:14:32;;;;;;;24.35;21.90;;;;;;;6.36;100.00;100289.06;2082190;28;20192;-71
2022/03/27 00:15:33;;;;;;;24.20;21.63;;;;;;;6.43;100.00;100308.28;2082507;28;20282;-72
2022/03/27 00:16:35;;;;;;;29.02;22.08;;;;;;;6.44;100.00;100301.94;2082474;28;20623;-72
2022/03/27 00:17:37;;;;;;;25.52;21.20;;;;;;;6.33;100.00;100299.31;2082579;28;20191;-72
2022/03/27 00:18:41;;;;;;;22.83;20.63;;;;;;;6.32;100.00;100297.72;2082540;28;20191;-72
2022/03/27 00:19:42;;;;;;;27.13;21.63;;;;;;;6.34;100.00;100295.63;2082545;28;20658;-72
2022/03/27 00:20:44;;;;;;;23.58;21.25;;;;;;;6.43;100.00;100304.81;2082541;28;20195;-72
2022/03/27 00:21:46;;;;;;;22.77;20.48;;;;;;;6.47;100.00;100311.25;2082082;28;20230;-72
2022/03/27 00:22:47;;;;;;;22.70;20.40;;;;;;;6.43;100.00;100318.88;2082154;28;20270;-72
2022/03/27 00:23:50;;;;;;;21.60;19.60;;;;;;;6.38;100.00;100323.28;2081914;28;20560;-72
2022/03/27 00:24:52;;;;;;;21.80;19.48;;;;;;;6.35;100.00;100327.22;2082425;28;20200;-72
2022/03/27 00:25:54;;;;;;;23.55;19.23;;;;;;;6.31;100.00;100331.34;2081636;28;20666;-71
2022/03/27 00:26:56;;;;;;;21.50;19.40;;;;;;;6.21;100.00;100329.31;2074019;28;20633;-72
2022/03/27 00:28:00;;;;;;;23.70;20.48;;;;;;;6.23;100.00;100327.22;2082122;28;20184;-71
2022/03/27 00:29:05;;;;;;;23.05;20.40;;;;;;;6.21;100.00;100333.81;2082092;28;20245;-71
2022/03/27 00:30:09;;;;;;;21.95;19.83;;;;;;;6.20;100.00;100330.38;2074181;28;20338;-71
2022/03/27 00:31:12;;;;;;;21.85;19.70;;;;;;;6.18;100.00;100331.66;2081692;28;20286;-72
2022/03/27 00:32:13;;;;;;;22.38;20.15;;;;;;;6.03;100.00;100328.69;2081957;28;20191;-72
2022/03/27 00:33:18;;;;;;;22.98;20.52;;;;;;;5.95;100.00;100324.56;2082397;28;20549;-71
2022/03/27 00:34:21;;;;;;;21.83;19.73;;;;;;;5.93;100.00;100331.94;2082768;28;20172;-71
2022/03/27 00:35:22;;;;;;;22.65;20.35;;;;;;;5.94;100.00;100344.16;2082133;28;20207;-71
2022/03/27 00:36:24;;;;;;;22.80;19.70;;;;;;;5.87;100.00;100346.06;2073466;28;20275;-71
2022/03/27 00:37:26;;;;;;;22.88;20.10;;;;;;;5.78;100.00;100355.41;2081830;28;20249;-71
2022/03/27 00:38:29;;;;;;;22.17;19.67;;;;;;;5.68;100.00;100354.16;2081639;28;20234;-72
2022/03/27 00:39:30;;;;;;;20.80;18.80;;;;;;;5.74;100.00;100370.19;2081786;28;20210;-71
2022/03/27 00:40:32;;;;;;;20.60;18.70;;;;;;;5.73;96.78;100374.63;2082418;28;20188;-71
2022/03/27 00:41:34;;;;;;;21.13;19.23;;;;;;;5.78;93.78;100381.91;2081694;28;20199;-71
2022/03/27 00:42:39;;;;;;;21.25;19.35;;;;;;;5.66;92.91;100389.88;2081915;28;20302;-73
2022/03/27 00:43:40;;;;;;;20.40;18.50;;;;;;;5.59;92.78;100384.69;2082444;28;20191;-71
2022/03/27 00:44:45;;;;;;;20.42;18.55;;;;;;;5.59;91.20;100391.81;2082344;28;20241;-71
2022/03/27 00:45:47;;;;;;;20.52;18.80;;;;;;;5.50;91.41;100390.53;2082254;28;20203;-71
2022/03/27 00:46:50;;;;;;;20.65;18.65;;;;;;;5.49;90.40;100384.44;2081856;28;20658;-71
2022/03/27 00:47:51;;;;;;;19.95;17.90;;;;;;;5.50;90.23;100396.66;2073594;28;20204;-72
2022/03/27 00:48:55;;;;;;;20.52;18.65;;;;;;;5.44;90.76;100391.44;2081791;28;20188;-71
2022/03/27 00:49:56;;;;;;;19.92;18.10;;;;;;;5.46;89.40;100390.19;2082311;28;20279;-71
2022/03/27 00:50:59;;;;;;;21.17;19.13;;;;;;;5.38;89.15;100388.69;2081058;28;20733;-71
2022/03/27 00:52:00;;;;;;;19.65;17.80;;;;;;;5.30;85.97;100404.09;2081974;28;20314;-71
2022/03/27 00:53:03;;;;;;;19.48;17.67;;;;;;;5.20;82.95;100417.06;2082045;28;20279;-71
2022/03/27 00:54:05;;;;;;;19.70;17.63;;;;;;;5.19;83.03;100416.25;2082272;28;20191;-71
2022/03/27 00:55:07;;;;;;;19.98;18.17;;;;;;;5.18;81.28;100421.78;2081270;28;20215;-71
2022/03/27 00:56:10;;;;;;;19.83;17.40;;;;;;;5.16;79.30;100432.59;2073623;28;20204;-71
2022/03/27 00:57:13;;;;;;;19.58;17.52;;;;;;;5.19;76.68;100431.34;2081794;28;20188;-71
2022/03/27 00:58:16;;;;;;;18.80;16.92;;;;;;;5.09;74.46;100453.03;2082176;28;20218;-71
2022/03/27 00:59:19;;;;;;;18.65;17.02;;;;;;;5.03;74.89;100438.88;2081463;28;20257;-71
2022/03/27 01:00:43;;;;;;;19.30;17.42;;;;;;;4.94;73.65;100434.13;2081862;28;20206;-71
2022/03/27 01:01:46;;;;;;;19.55;17.50;;;;;;;4.87;74.34;100426.31;2082670;28;20190;-71
2022/03/27 01:02:50;;;;;;;18.67;16.92;;;;;;;4.84;74.14;100429.38;2082234;28;20557;-71
2022/03/27 01:03:54;;;;;;;19.70;17.00;;;;;;;4.76;73.72;100427.06;2082235;28;20194;-71
2022/03/27 01:04:55;;;;;;;18.30;16.58;;;;;;;4.76;73.69;100427.06;2082006;28;20207;-71
2022/03/27 01:05:59;;;;;;;18.58;16.88;;;;;;;4.68;74.29;100436.09;2073105;28;20270;-71
2022/03/27 01:07:00;;;;;;;18.38;16.60;;;;;;;4.63;74.68;100422.75;2073851;28;20223;-71
2022/03/27 01:08:03;;;;;;;18.38;16.48;;;;;;;4.64;73.98;100424.38;2081637;28;20762;-71
2022/03/27 01:10:25;;;;;;;18.10;16.38;;;;;;;4.56;75.33;100419.38;2081576;28;20183;-71
2022/03/27 01:11:27;;;;;;;17.13;15.63;;;;;;;4.59;74.92;100429.50;2081641;28;20600;-71
2022/03/27 01:12:34;;;;;;;18.48;16.83;;;;;;;4.52;74.32;100426.97;2082168;28;20531;-72
2022/03/27 01:13:35;;;;;;;18.88;17.17;;;;;;;4.45;75.52;100425.44;2081433;28;20249;-72
2022/03/27 01:14:38;;;;;;;18.67;16.80;;;;;;;4.47;75.82;100426.81;2073443;28;20224;-72
2022/03/27 01:15:46;;;;;;;18.20;16.50;;;;;;;4.48;75.25;100430.25;2081787;28;20283;-72
2022/03/27 01:16:59;;;;;;;18.48;16.67;;;;;;;4.33;75.69;100425.34;2081778;28;20666;-71
2022/03/27 01:18:00;;;;;;;17.35;15.85;;;;;;;4.21;76.41;100420.00;2081845;28;20291;-72
2022/03/27 01:19:06;;;;;;;18.50;16.65;;;;;;;4.19;77.71;100421.25;2081695;28;20199;-72
2022/03/27 01:20:09;;;;;;;17.85;16.20;;;;;;;4.10;77.66;100419.94;2081587;28;20207;-71
2022/03/27 01:21:12;;;;;;;17.88;16.27;;;;;;;4.00;78.59;100416.97;2080995;28;20592;-72
2022/03/27 01:22:15;;;;;;;17.35;16.00;;;;;;;4.15;77.81;100417.44;2081706;28;20188;-72
2022/03/27 01:23:16;;;;;;;18.08;16.38;;;;;;;4.12;77.19;100431.09;2082135;28;20195;-72
2022/03/27 01:24:20;;;;;;;18.73;17.02;;;;;;;4.05;77.61;100438.25;2081432;28;20204;-72
2022/03/27 01:25:22;;;;;;;18.10;16.50;;;;;;;4.09;77.25;100434.19;2081442;28;20682;-72
2022/03/27 01:26:25;;;;;;;18.25;16.65;;;;;;;4.09;76.22;100436.81;2073750;28;20733;-72
2022/03/27 01:27:27;;;;;;;17.88;16.17;;;;;;;3.95;75.83;100436.94;2081640;28;20214;-72
2022/03/27 01:28:29;;;;;;;17.92;16.13;;;;;;;3.88;77.06;100430.91;2082230;28;20560;-72
2022/03/27 01:29:31;;;;;;;18.13;16.52;;;;;;;3.94;76.48;100432.69;2082130;28;20650;-71
2022/03/27 01:30:32;;;;;;;17.55;16.05;;;;;;;4.01;75.97;100434.47;2081421;28;20203;-72
2022/03/27 01:31:35;;;;;;;17.97;16.43;;;;;;;4.07;75.69;100438.84;2081530;28;20273;-71
2022/03/27 01:32:36;;;;;;;17.83;16.30;;;;;;;3.94;76.06;100435.31;2081394;28;20314;-72
2022/03/27 01:33:39;;;;;;;18.43;16.63;;;;;;;3.97;74.91;100437.53;2081853;28;20188;-72
2022/03/27 01:34:44;;;;;;;18.48;16.67;;;;;;;4.01;74.87;100445.03;2082055;28;20462;-72
2022/03/27 01:35:47;;;;;;;19.30;16.85;;;;;;;4.01;74.91;100445.03;2081332;28;20237;-72
2022/03/27 01:36:51;;;;;;;19.23;16.95;;;;;;;3.92;75.36;100437.38;2073333;28;20237;-72
2022/03/27 01:37:53;;;;;;;18.10;16.40;;;;;;;4.00;74.69;100453.94;2073597;28;20207;-72
2022/03/27 01:38:57;;;;;;;18.33;16.63;;;;;;;3.84;74.98;100450.06;2081438;28;20194;-71
2022/03/27 01:40:00;;;;;;;18.05;16.60;;;;;;;3.83;75.79;100448.44;2082070;28;20199;-71
2022/03/27 01:41:01;;;;;;;18.50;16.73;;;;;;;3.89;75.63;100443.06;2081378;28;20211;-71
2022/03/27 01:42:05;;;;;;;17.63;16.13;;;;;;;3.88;76.21;100445.94;2081563;28;20245;-71
2022/03/27 01:43:06;;;;;;;17.50;16.08;;;;;;;3.82;75.55;100452.91;2081644;28;20196;-72
2022/03/27 01:44:11;;;;;;;17.92;16.10;;;;;;;3.80;76.06;100451.50;2081786;28;20191;-71
2022/03/27 01:45:14;;;;;;;16.60;15.27;;;;;;;3.93;74.77;100457.47;2081420;28;20207;-71
2022/03/27 01:46:16;;;;;;;17.73;16.02;;;;;;;3.84;75.37;100452.69;2073275;28;20219;-72
2022/03/27 01:47:21;;;;;;;17.88;15.93;;;;;;;3.79;75.10;100452.53;2073637;28;20208;-73
2022/03/27 01:48:22;;;;;;;18.05;16.15;;;;;;;3.73;75.86;100454.19;2081482;28;20203;-72
2022/03/27 01:49:26;;;;;;;17.38;15.60;;;;;;;3.66;76.73;100443.72;2082111;28;20229;-72
2022/03/27 01:50:28;;;;;;;23.30;16.40;;;;;;;3.63;76.90;100448.59;2081579;28;20662;-71
2022/03/27 01:51:33;;;;;;;18.13;16.30;;;;;;;3.66;77.13;100449.00;2072869;28;20212;-72
2022/03/27 01:52:36;;;;;;;18.08;16.42;;;;;;;3.57;77.27;100442.38;2081738;28;20258;-71
2022/03/27 01:53:38;;;;;;;18.77;16.38;;;;;;;3.55;78.04;100444.41;2081177;28;20230;-71
2022/03/27 01:54:40;;;;;;;18.33;16.73;;;;;;;3.39;78.54;100439.69;2081523;28;20279;-71
2022/03/27 01:55:41;;;;;;;17.70;16.02;;;;;;;3.50;78.79;100441.59;2082121;28;20245;-71
2022/03/27 01:56:44;;;;;;;18.42;16.52;;;;;;;3.48;78.99;100437.59;2081509;28;20682;-71
2022/03/27 01:57:46;;;;;;;17.50;15.82;;;;;;;3.42;79.07;100438.44;2081276;28;20704;-71
2022/03/27 01:58:48;;;;;;;16.88;15.57;;;;;;;3.40;79.19;100433.38;2081408;28;20250;-71
2022/03/27 01:59:50;;;;;;;17.75;16.23;;;;;;;3.46;79.49;100444.88;2083058;28;20188;-71
2022/03/27 02:00:52;;;;;;;18.60;16.90;;;;;;;3.35;79.74;100436.66;2083680;28;20417;-71
2022/03/27 02:01:54;;;;;;;17.90;16.40;;;;;;;3.25;80.79;100440.78;2082849;28;20206;-71
2022/03/27 02:02:56;;;;;;;17.73;16.20;;;;;;;3.10;81.96;100433.16;2082774;28;20598;-71
2022/03/27 02:03:57;;;;;;;18.08;16.50;;;;;;;2.98;83.17;100424.34;2083304;28;20212;-71
2022/03/27 02:05:01;;;;;;;17.83;16.33;;;;;;;2.91;84.29;100429.63;2074785;28;20547;-71
2022/03/27 02:06:05;;;;;;;17.50;15.95;;;;;;;2.86;85.34;100426.00;2082564;28;20194;-71
2022/03/27 02:07:09;;;;;;;17.50;16.00;;;;;;;2.82;86.09;100421.16;2083553;28;20187;-71
2022/03/27 02:08:12;;;;;;;17.50;16.02;;;;;;;2.75;86.30;100425.66;2083690;28;20662;-71
2022/03/27 02:09:14;;;;;;;16.58;15.07;;;;;;;2.68;87.38;100419.63;2083488;28;20192;-71
2022/03/27 02:10:17;;;;;;;19.15;16.33;;;;;;;2.59;87.81;100427.97;2082767;28;20204;-71
2022/03/27 02:11:23;;;;;;;17.33;15.90;;;;;;;2.53;88.80;100433.09;2082927;28;20679;-71
2022/03/27 02:12:26;;;;;;;17.50;15.85;;;;;;;2.47;89.51;100425.19;2083694;28;20172;-71
2022/03/27 02:13:29;;;;;;;17.48;15.98;;;;;;;2.42;90.44;100435.53;2082811;28;20690;-71
2022/03/27 02:14:31;;;;;;;17.38;15.82;;;;;;;2.49;91.05;100428.44;2082855;28;20195;-71
2022/03/27 02:15:33;;;;;;;17.77;16.38;;;;;;;2.46;91.29;100442.03;2083398;28;20211;-71
2022/03/27 02:16:35;;;;;;;17.52;16.08;;;;;;;2.52;91.97;100430.66;2083001;28;20561;-72
2022/03/27 02:17:39;;;;;;;17.55;16.05;;;;;;;2.66;91.28;100442.72;2082938;28;20310;-71
2022/03/27 02:18:42;;;;;;;18.25;16.30;;;;;;;2.86;88.95;100447.91;2083720;28;20670;-72
2022/03/27 02:19:45;;;;;;;17.95;16.27;;;;;;;2.99;86.55;100463.66;2083468;28;20187;-71
2022/03/27 02:20:48;;;;;;;18.35;16.48;;;;;;;2.97;85.01;100459.63;2083088;28;20194;-71
2022/03/27 02:21:52;;;;;;;18.42;16.63;;;;;;;3.02;83.82;100467.69;2082785;28;20226;-71
2022/03/27 02:22:54;;;;;;;20.23;16.55;;;;;;;2.92;84.03;100462.06;2082879;28;20270;-71
2022/03/27 02:23:58;;;;;;;18.35;16.52;;;;;;;2.98;83.09;100472.59;2083438;28;20253;-71
2022/03/27 02:24:59;;;;;;;18.15;16.40;;;;;;;2.88;83.43;100466.97;2083633;28;20190;-71
2022/03/27 02:26:02;;;;;;;17.42;15.68;;;;;;;2.94;83.50;100467.94;2082806;28;20195;-71
2022/03/27 02:27:07;;;;;;;17.13;15.45;;;;;;;2.93;83.84;100466.31;2074633;28;20246;-72
2022/03/27 02:28:10;;;;;;;19.08;16.00;;;;;;;3.01;83.09;100460.81;2082928;28;20710;-72
2022/03/27 02:29:14;;;;;;;17.23;15.60;;;;;;;2.96;83.46;100465.91;2082839;28;20282;-71
2022/03/27 02:30:15;;;;;;;17.27;15.70;;;;;;;3.04;82.27;100463.00;2083372;28;20541;-71
2022/03/27 02:31:19;;;;;;;17.20;15.90;;;;;;;2.99;81.88;100471.56;2083385;28;20620;-71
2022/03/27 02:32:20;;;;;;;17.17;15.65;;;;;;;2.90;81.52;100474.66;2083340;28;20204;-71
2022/03/27 02:33:24;;;;;;;16.67;15.07;;;;;;;2.83;83.43;100470.22;2082614;28;20208;-71
2022/03/27 02:34:26;;;;;;;17.15;15.50;;;;;;;2.78;83.50;100458.69;2082756;28;20230;-71
2022/03/27 02:35:29;;;;;;;18.48;16.65;;;;;;;2.75;84.00;100465.19;2083340;28;20183;-71
2022/03/27 02:36:31;;;;;;;17.55;15.73;;;;;;;2.87;83.17;100462.72;2083014;28;20630;-71
2022/03/27 02:37:34;;;;;;;18.25;16.42;;;;;;;2.92;83.03;100468.16;2083325;28;20184;-71
2022/03/27 02:38:37;;;;;;;17.92;16.50;;;;;;;2.83;82.65;100472.06;2083554;28;20584;-71
2022/03/27 02:39:40;;;;;;;18.08;16.23;;;;;;;2.79;82.90;100468.22;2083322;28;20244;-71
2022/03/27 02:40:43;;;;;;;16.90;15.32;;;;;;;2.65;83.76;100472.75;2083511;28;20549;-72
2022/03/27 02:41:46;;;;;;;17.13;15.73;;;;;;;2.53;85.55;100467.31;2082578;28;20198;-71
2022/03/27 02:42:48;;;;;;;17.23;15.60;;;;;;;2.47;86.05;100462.06;2082797;28;20229;-71
2022/03/27 02:43:50;;;;;;;17.13;15.73;;;;;;;2.37;87.08;100459.88;2082831;28;20187;-71
2022/03/27 02:44:52;;;;;;;17.20;15.70;;;;;;;2.26;88.05;100460.53;2074803;28;20208;-72
2022/03/27 02:45:54;;;;;;;17.50;15.60;;;;;;;2.16;89.98;100449.59;2082731;28;20199;-71
2022/03/27 02:46:56;;;;;;;16.60;15.07;;;;;;;2.11;90.80;100455.50;2083323;28;20238;-72
2022/03/27 02:47:59;;;;;;;16.50;15.05;;;;;;;2.12;90.89;100456.31;2082918;28;20199;-71
2022/03/27 02:49:02;;;;;;;17.17;15.68;;;;;;;2.25;89.70;100462.31;2082536;28;20566;-72
2022/03/27 02:50:05;;;;;;;17.13;15.45;;;;;;;2.26;88.50;100463.16;2082555;28;20269;-71
2022/03/27 02:51:08;;;;;;;16.70;15.23;;;;;;;2.26;88.23;100465.78;2082668;28;20577;-71
2022/03/27 02:52:09;;;;;;;16.45;14.70;;;;;;;2.23;88.32;100466.19;2083469;28;20623;-72
2022/03/27 02:53:12;;;;;;;17.45;15.65;;;;;;;2.18;89.04;100466.81;2083015;28;20183;-71
2022/03/27 02:54:17;;;;;;;15.98;14.82;;;;;;;2.11;89.87;100458.13;2083266;28;20187;-71
2022/03/27 02:55:20;;;;;;;17.00;15.55;;;;;;;2.04;90.94;100459.97;2082903;28;20683;-71
2022/03/27 02:56:23;;;;;;;17.05;15.32;;;;;;;1.95;92.23;100455.94;2074937;28;20699;-71
2022/03/27 02:57:24;;;;;;;17.83;16.00;;;;;;;1.87;93.11;100453.50;2082677;28;20198;-71
2022/03/27 02:58:27;;;;;;;17.23;15.73;;;;;;;1.81;93.20;100457.75;2082746;28;20569;-71
2022/03/27 02:59:28;;;;;;;17.40;15.80;;;;;;;1.74;94.06;100448.25;2082692;28;20204;-71
2022/03/27 03:00:31;;;;;;;16.90;15.40;;;;;;;1.66;94.57;100450.09;2082645;28;20188;-71
2022/03/27 03:01:33;;;;;;;17.40;15.57;;;;;;;1.61;95.09;100449.88;2083137;28;20674;-71
2022/03/27 03:02:35;;;;;;;17.77;15.60;;;;;;;1.55;95.62;100453.31;2082517;28;20195;-71
2022/03/27 03:03:38;;;;;;;18.30;16.38;;;;;;;1.50;95.98;100453.13;2074420;28;20212;-72
2022/03/27 03:04:39;;;;;;;18.38;15.57;;;;;;;1.43;96.27;100457.56;2082420;28;20218;-71
2022/03/27 03:05:42;;;;;;;17.48;15.80;;;;;;;1.39;97.07;100451.06;2082554;28;20276;-71
2022/03/27 03:06:43;;;;;;;16.65;15.35;;;;;;;1.35;97.56;100450.69;2081778;28;20224;-71
2022/03/27 03:07:46;;;;;;;18.27;15.52;;;;;;;1.26;98.04;100445.81;2082757;28;20195;-71
2022/03/27 03:08:48;;;;;;;17.05;15.45;;;;;;;1.25;98.85;100452.91;2082437;28;20769;-71
2022/03/27 03:09:54;;;;;;;16.50;15.07;;;;;;;1.20;99.07;100450.06;2074720;28;20200;-71
2022/03/27 03:10:56;;;;;;;16.65;15.35;;;;;;;1.15;99.52;100443.78;2081452;28;20200;-71
2022/03/27 03:11:59;;;;;;;17.05;15.48;;;;;;;1.11;99.62;100451.25;2082448;28;20188;-71
2022/03/27 03:13:01;;;;;;;18.50;16.35;;;;;;;1.09;100.00;100459.34;2083111;28;20249;-71
2022/03/27 03:14:03;;;;;;;19.58;17.08;;;;;;;1.08;100.00;100456.91;2083015;28;20202;-72
2022/03/27 03:15:05;;;;;;;16.40;14.82;;;;;;;1.04;100.00;100448.63;2082260;28;20218;-71
2022/03/27 03:16:09;;;;;;;16.15;14.98;;;;;;;1.19;100.00;100455.50;2082675;28;20192;-71
2022/03/27 03:17:10;;;;;;;17.08;15.40;;;;;;;1.51;98.92;100460.00;2082652;28;20206;-71
2022/03/27 03:18:13;;;;;;;17.08;15.48;;;;;;;1.64;96.57;100469.69;2082363;28;20532;-72
2022/03/27 03:19:14;;;;;;;16.95;15.32;;;;;;;1.92;94.71;100482.66;2082595;28;20293;-71
2022/03/27 03:20:19;;;;;;;16.52;15.23;;;;;;;1.92;93.27;100483.47;2074316;28;20204;-71
2022/03/27 03:21:21;;;;;;;17.25;15.55;;;;;;;1.93;92.48;100484.28;2081983;28;20253;-71
2022/03/27 03:22:27;;;;;;;17.80;16.15;;;;;;;1.92;92.55;100482.66;2083118;28;20196;-71
2022/03/27 03:23:29;;;;;;;16.60;15.18;;;;;;;1.84;93.00;100482.88;2082349;28;20291;-72
2022/03/27 03:24:33;;;;;;;16.52;15.18;;;;;;;1.80;93.61;100473.75;2082725;28;20203;-71
2022/03/27 03:25:35;;;;;;;17.30;15.68;;;;;;;1.76;94.07;100475.19;2082946;28;20245;-71
2022/03/27 03:26:37;;;;;;;17.27;15.80;;;;;;;1.74;94.03;100471.91;2082219;28;20216;-71
2022/03/27 03:27:40;;;;;;;17.90;16.05;;;;;;;1.84;93.75;100474.97;2074283;28;20220;-71
2022/03/27 03:28:41;;;;;;;17.05;15.43;;;;;;;1.95;92.85;100480.41;2082479;28;20211;-71
2022/03/27 03:29:43;;;;;;;17.15;15.75;;;;;;;1.92;92.48;100478.22;2082930;28;20204;-71
2022/03/27 03:30:45;;;;;;;18.35;16.10;;;;;;;1.85;92.74;100469.50;2082899;28;20212;-71
2022/03/27 03:31:47;;;;;;;17.17;15.45;;;;;;;1.73;93.30;100473.75;2082916;28;20187;-71
2022/03/27 03:32:48;;;;;;;17.65;15.90;;;;;;;1.72;94.95;100468.69;2082096;28;20607;-71
2022/03/27 03:33:50;;;;;;;17.83;16.05;;;;;;;1.75;94.43;100474.38;2082295;28;20194;-71
2022/03/27 03:34:52;;;;;;;16.75;15.10;;;;;;;1.75;94.58;100470.94;2082264;28;20206;-71
2022/03/27 03:35:55;;;;;;;16.38;14.77;;;;;;;1.90;93.40;100482.84;2082358;28;20733;-71
2022/03/27 03:36:59;;;;;;;16.70;15.15;;;;;;;1.86;93.20;100476.38;2082472;28;20297;-71
2022/03/27 03:38:00;;;;;;;16.70;15.30;;;;;;;1.75;93.59;100469.09;2082317;28;20192;-71
2022/03/27 03:39:03;;;;;;;17.10;15.55;;;;;;;1.69;94.73;100468.09;2082960;28;20392;-71
2022/03/27 03:40:07;;;;;;;17.70;16.02;;;;;;;1.75;94.07;100470.94;2082432;28;20339;-71
2022/03/27 03:41:10;;;;;;;17.33;15.60;;;;;;;1.90;91.67;100492.56;2074282;28;20219;-71
2022/03/27 03:42:12;;;;;;;18.00;16.05;;;;;;;1.79;91.70;100482.66;2082497;28;20196;-72
2022/03/27 03:43:15;;;;;;;17.75;15.90;;;;;;;1.77;91.83;100474.97;2082155;28;20188;-71
2022/03/27 03:44:17;;;;;;;16.98;15.65;;;;;;;1.87;91.26;100483.25;2082138;28;20208;-71
2022/03/27 03:45:20;;;;;;;18.73;16.88;;;;;;;1.85;91.00;100487.13;2082250;28;20211;-72
2022/03/27 03:46:21;;;;;;;17.58;15.93;;;;;;;1.92;91.18;100482.66;2082829;28;20251;-71
2022/03/27 03:47:24;;;;;;;17.90;16.42;;;;;;;1.79;91.51;100493.19;2082963;28;20568;-71
2022/03/27 03:48:25;;;;;;;17.98;16.27;;;;;;;1.67;92.76;100479.84;2082429;28;20204;-71
2022/03/27 03:49:27;;;;;;;17.63;16.00;;;;;;;1.63;93.17;100474.16;2082116;28;20219;-71
2022/03/27 03:50:29;;;;;;;17.00;15.57;;;;;;;1.60;93.54;100476.38;2082981;28;20219;-71
2022/03/27 03:51:31;;;;;;;17.52;15.95;;;;;;;1.56;93.97;100475.97;2082615;28;20670;-71
2022/03/27 03:52:32;;;;;;;19.33;16.33;;;;;;;1.45;94.93;100476.56;2082984;28;20195;-72
2022/03/27 03:53:35;;;;;;;18.27;16.48;;;;;;;1.37;95.74;100472.31;2082681;28;20232;-71
2022/03/27 03:54:36;;;;;;;17.33;15.90;;;;;;;1.28;96.53;100473.53;2082909;28;20214;-71
2022/03/27 03:55:39;;;;;;;18.75;16.35;;;;;;;1.19;97.34;100469.47;2082928;28;20184;-71
2022/03/27 03:56:41;;;;;;;17.48;15.98;;;;;;;1.12;98.27;100471.25;2082634;28;20230;-71
2022/03/27 03:57:43;;;;;;;17.25;15.38;;;;;;;1.05;98.81;100471.28;2082719;28;20194;-71
2022/03/27 03:58:45;;;;;;;17.10;15.60;;;;;;;0.98;99.22;100469.63;2082701;28;20279;-72
2022/03/27 03:59:47;;;;;;;16.88;15.20;;;;;;;0.91;99.78;100471.44;2082256;28;20196;-71
2022/03/27 04:00:48;;;;;;;17.85;15.05;;;;;;;0.86;100.00;100474.63;2082073;28;20199;-71
2022/03/27 04:01:50;;;;;;;17.50;15.65;;;;;;;0.79;100.00;100472.00;2082736;28;20187;-71
2022/03/27 04:02:52;;;;;;;16.63;15.10;;;;;;;0.74;100.00;100477.03;2082683;28;20191;-71
2022/03/27 04:03:54;;;;;;;17.15;15.50;;;;;;;0.72;100.00;100473.00;2082662;28;20275;-72
2022/03/27 04:04:58;;;;;;;17.70;16.05;;;;;;;0.74;100.00;100473.59;2082668;28;20207;-71
2022/03/27 04:06:00;;;;;;;17.13;15.52;;;;;;;0.75;100.00;100480.47;2082377;28;20191;-71
2022/03/27 04:07:03;;;;;;;17.40;15.90;;;;;;;0.78;100.00;100477.44;2082707;28;20176;-71
2022/03/27 04:08:05;;;;;;;17.85;16.17;;;;;;;0.76;100.00;100482.88;2081839;28;20234;-71
2022/03/27 04:09:08;;;;;;;17.55;15.77;;;;;;;0.73;100.00;100479.84;2082216;28;20198;-71
2022/03/27 04:10:10;;;;;;;18.30;15.40;;;;;;;0.77;100.00;100483.69;2082230;28;20200;-71
2022/03/27 04:11:16;;;;;;;18.23;16.30;;;;;;;0.77;100.00;100487.13;2082135;28;20258;-71
2022/03/27 04:12:22;;;;;;;17.33;15.73;;;;;;;0.78;100.00;100490.56;2081925;28;20299;-71
2022/03/27 04:13:24;;;;;;;19.05;16.90;;;;;;;0.74;100.00;100484.91;2074373;28;20291;-71
2022/03/27 04:14:28;;;;;;;20.63;16.40;;;;;;;0.71;100.00;100493.19;2073498;28;20211;-71
2022/03/27 04:15:31;;;;;;;17.75;16.15;;;;;;;0.67;100.00;100489.31;2074083;28;20675;-71
2022/03/27 04:16:32;;;;;;;21.08;16.50;;;;;;;0.61;100.00;100486.66;2073932;28;20212;-71
2022/03/27 04:17:36;;;;;;;17.27;15.48;;;;;;;0.55;100.00;100486.44;2082139;28;20238;-71
2022/03/27 04:18:39;;;;;;;16.65;15.23;;;;;;;0.51;100.00;100479.16;2081786;28;20221;-71
2022/03/27 04:19:42;;;;;;;17.67;15.77;;;;;;;0.46;100.00;100485.00;2073843;28;20247;-71
2022/03/27 04:20:43;;;;;;;17.88;16.05;;;;;;;0.43;100.00;100488.00;2081943;28;20237;-71
2022/03/27 04:21:46;;;;;;;17.50;15.85;;;;;;;0.36;100.00;100483.75;2081705;28;20299;-71
2022/03/27 04:22:48;;;;;;;17.85;16.02;;;;;;;0.32;100.00;100480.66;2081754;28;20690;-71
2022/03/27 04:23:50;;;;;;;17.85;15.90;;;;;;;0.27;100.00;100485.72;2081906;28;20195;-71
2022/03/27 04:24:51;;;;;;;17.90;16.10;;;;;;;0.24;100.00;100484.25;2082454;28;20188;-71
2022/03/27 04:25:53;;;;;;;20.92;16.17;;;;;;;0.22;100.00;100480.22;2082523;28;20192;-71
2022/03/27 04:26:55;;;;;;;17.35;15.85;;;;;;;0.17;100.00;100479.97;2082519;28;20188;-71
2022/03/27 04:27:59;;;;;;;19.40;17.00;;;;;;;0.13;100.00;100484.00;2081925;28;20211;-71
2022/03/27 04:29:02;;;;;;;17.83;16.08;;;;;;;0.10;100.00;100495.69;2081821;28;20199;-71
2022/03/27 04:30:07;;;;;;;18.67;16.75;;;;;;;0.08;100.00;100489.00;2082055;28;20195;-71
2022/03/27 04:31:08;;;;;;;18.50;16.55;;;;;;;0.03;100.00;100492.22;2081995;28;20199;-71
2022/03/27 04:32:11;;;;;;;17.67;16.27;;;;;;;0.02;100.00;100501.09;2073937;28;20643;-71
2022/03/27 04:33:12;;;;;;;21.83;16.88;;;;;;;0.01;100.00;100501.28;2081897;28;20219;-71
2022/03/27 04:34:15;;;;;;;20.92;17.27;;;;;;;-0.02;100.00;100500.66;2082460;28;20234;-72
2022/03/27 04:35:16;;;;;;;18.30;16.70;;;;;;;-0.03;100.00;100498.22;2082499;28;20204;-71
2022/03/27 04:36:19;;;;;;;17.67;16.17;;;;;;;-0.04;100.00;100505.28;2081931;28;20265;-71
2022/03/27 04:37:20;;;;;;;18.15;16.42;;;;;;;0.00;100.00;100497.84;2081748;28;20200;-71
2022/03/27 04:38:22;;;;;;;21.58;17.33;;;;;;;0.01;100.00;100507.34;2081987;28;20203;-71
2022/03/27 04:39:24;;;;;;;18.63;16.90;;;;;;;0.02;100.00;100501.09;2081920;28;20196;-72
2022/03/27 04:40:28;;;;;;;18.80;16.83;;;;;;;0.07;100.00;100503.94;2082485;28;20202;-72
2022/03/27 04:41:30;;;;;;;20.08;17.90;;;;;;;0.07;100.00;100509.19;2082070;28;20208;-72
2022/03/27 04:42:33;;;;;;;19.52;17.60;;;;;;;0.08;100.00;100516.03;2081885;28;20184;-72
2022/03/27 04:43:36;;;;;;;21.10;17.48;;;;;;;0.05;100.00;100511.19;2081659;28;20295;-72
2022/03/27 04:44:38;;;;;;;25.48;17.27;;;;;;;0.07;100.00;100513.63;2081763;28;20270;-72
2022/03/27 04:45:39;;;;;;;19.05;17.00;;;;;;;0.05;100.00;100507.75;2082341;28;20191;-72
2022/03/27 04:46:43;;;;;;;18.88;17.27;;;;;;;0.07;100.00;100509.19;2082439;28;20187;-72
2022/03/27 04:47:45;;;;;;;18.92;17.13;;;;;;;0.07;100.00;100509.19;2082541;28;20553;-72
2022/03/27 04:48:47;;;;;;;19.42;17.50;;;;;;;0.06;100.00;100512.81;2082289;28;20241;-72